Time;durP1;ratioP1;P1;durP2;ratioP2;P2;SDS_P1;SDS_P2;PMS_P1;PMS_P2;Temp;Humidity;BMP_temperature;BMP_pressure;BME280_temperature;BME280_humidity;BME280_pressure;Samples;Min_cycle;Max_cycle;Signal;HPM_P1;HPM_P2
2023/01/02 00:02:04;;;;;;;6.07;5.23;;;15.50;60.90;;;;;;5053367;28;20444;-71
2023/01/02 00:04:30;;;;;;;9.53;6.13;;;15.50;60.80;;;;;;5053757;28;20452;-71
2023/01/02 00:06:57;;;;;;;8.67;6.20;;;15.50;60.80;;;;;;5053317;28;20463;-71
2023/01/02 00:09:24;;;;;;;8.10;5.53;;;15.50;60.70;;;;;;5053628;28;20444;-71
2023/01/02 00:11:51;;;;;;;8.07;4.67;;;15.50;60.60;;;;;;5053576;28;20984;-71
2023/01/02 00:14:18;;;;;;;5.87;4.40;;;15.40;60.70;;;;;;5053069;28;20449;-71
2023/01/02 00:16:46;;;;;;;7.60;4.47;;;15.40;60.70;;;;;;5053287;28;20487;-71
2023/01/02 00:19:13;;;;;;;6.60;4.47;;;15.40;60.80;;;;;;5052966;28;20452;-71
2023/01/02 00:21:40;;;;;;;5.67;3.97;;;15.40;60.90;;;;;;5053616;28;20836;-71
2023/01/02 00:24:07;;;;;;;5.83;4.27;;;15.40;61.00;;;;;;5052933;28;20456;-71
2023/01/02 00:26:34;;;;;;;5.00;3.83;;;15.40;61.10;;;;;;5052834;28;20495;-71
2023/01/02 00:29:01;;;;;;;5.80;4.30;;;15.50;61.10;;;;;;5052456;28;20452;-71
2023/01/02 00:31:28;;;;;;;6.17;4.27;;;15.50;61.10;;;;;;5053405;28;20452;-71
2023/01/02 00:33:56;;;;;;;6.47;4.90;;;15.50;61.20;;;;;;5053177;28;20480;-72
2023/01/02 00:36:25;;;;;;;6.17;4.03;;;15.50;61.20;;;;;;5052415;28;20544;-71
2023/01/02 00:38:54;;;;;;;6.47;4.17;;;15.50;61.00;;;;;;5053441;28;20487;-71
2023/01/02 00:41:21;;;;;;;5.17;4.00;;;15.50;60.90;;;;;;5052267;28;20968;-71
2023/01/02 00:43:48;;;;;;;6.63;5.10;;;15.50;61.10;;;;;;5053013;28;20785;-71
2023/01/02 00:46:17;;;;;;;6.17;4.47;;;15.50;61.10;;;;;;5052516;28;20832;-71
2023/01/02 00:48:44;;;;;;;9.63;4.23;;;15.40;61.10;;;;;;5053284;28;20859;-71
2023/01/02 00:51:12;;;;;;;6.73;4.30;;;15.40;61.30;;;;;;5052481;28;20458;-71
2023/01/02 00:53:39;;;;;;;6.63;4.83;;;15.40;61.40;;;;;;5052688;28;20502;-71
2023/01/02 00:56:06;;;;;;;5.00;4.37;;;15.40;62.30;;;;;;5051679;28;20460;-71
2023/01/02 00:58:33;;;;;;;7.23;4.57;;;15.40;61.60;;;;;;5052880;28;20448;-72
2023/01/02 01:01:00;;;;;;;6.23;4.20;;;15.40;61.60;;;;;;5052583;28;20479;-71
2023/01/02 01:03:27;;;;;;;7.27;4.60;;;15.40;61.50;;;;;;5052999;28;20447;-72
2023/01/02 01:05:56;;;;;;;6.03;4.10;;;15.40;61.70;;;;;;5051314;28;20535;-72
2023/01/02 01:08:25;;;;;;;6.63;4.37;;;15.40;61.90;;;;;;5051948;28;20448;-72
2023/01/02 01:10:52;;;;;;;5.07;4.33;;;15.40;61.90;;;;;;5052552;28;20872;-72
2023/01/02 01:13:18;;;;;;;6.73;4.83;;;15.50;62.00;;;;;;5051943;28;20487;-71
2023/01/02 01:15:46;;;;;;;5.97;4.50;;;15.50;62.00;;;;;;5052457;28;20811;-71
2023/01/02 01:18:12;;;;;;;5.57;4.47;;;15.50;61.90;;;;;;5051803;28;20983;-72
2023/01/02 01:20:39;;;;;;;5.30;4.67;;;15.50;61.90;;;;;;5052451;28;20444;-71
2023/01/02 01:23:06;;;;;;;8.37;5.10;;;15.50;62.00;;;;;;5051802;28;20458;-71
2023/01/02 01:25:37;;;;;;;8.33;4.67;;;15.50;62.20;;;;;;5051607;28;20510;-71
2023/01/02 01:28:04;;;;;;;8.67;4.63;;;15.50;62.30;;;;;;5014063;28;20453;-71
2023/01/02 01:30:30;;;;;;;9.07;4.90;;;15.50;62.30;;;;;;5032174;28;20454;-71
2023/01/02 01:32:58;;;;;;;7.27;4.73;;;15.50;62.20;;;;;;5032462;28;20485;-71
2023/01/02 01:35:25;;;;;;;5.90;4.37;;;15.50;62.00;;;;;;5031619;28;20461;-72
2023/01/02 01:37:52;;;;;;;8.73;5.30;;;15.50;62.20;;;;;;5050369;28;20471;-71
2023/01/02 01:40:19;;;;;;;10.50;4.97;;;15.50;62.10;;;;;;5051257;28;20444;-71
2023/01/02 01:42:47;;;;;;;9.17;5.20;;;15.50;62.20;;;;;;5051575;28;20445;-71
2023/01/02 01:45:15;;;;;;;6.57;4.50;;;15.50;62.40;;;;;;5051415;28;20453;-71
2023/01/02 01:47:46;;;;;;;7.40;4.10;;;15.50;62.60;;;;;;5051926;28;20449;-71
2023/01/02 01:50:17;;;;;;;8.33;5.40;;;15.50;62.60;;;;;;5051474;28;20788;-71
2023/01/02 01:52:49;;;;;;;6.87;4.50;;;15.50;62.60;;;;;;5051636;28;20468;-71
2023/01/02 01:55:19;;;;;;;7.07;4.77;;;15.50;62.70;;;;;;5051060;28;20452;-71
2023/01/02 01:57:51;;;;;;;6.63;4.40;;;15.50;62.60;;;;;;5050945;28;20840;-71
2023/01/02 02:00:18;;;;;;;7.30;4.87;;;15.50;62.60;;;;;;5048207;28;20453;-71
2023/01/02 02:02:47;;;;;;;10.07;5.03;;;15.50;62.60;;;;;;5051480;28;20495;-71
2023/01/02 02:05:18;;;;;;;6.17;4.90;;;15.50;62.60;;;;;;5050841;28;20459;-71
2023/01/02 02:07:51;;;;;;;8.20;5.60;;;15.50;62.70;;;;;;5051330;28;20448;-72
2023/01/02 02:10:18;;;;;;;7.77;5.00;;;15.40;62.40;;;;;;5050964;28;20490;-71
2023/01/02 02:12:46;;;;;;;6.23;5.00;;;15.40;62.30;;;;;;5051027;28;20483;-71
2023/01/02 02:15:19;;;;;;;8.03;5.97;;;15.30;62.30;;;;;;5050536;28;20452;-72
2023/01/02 02:17:58;;;;;;;8.97;5.40;;;15.30;62.40;;;;;;5050654;28;20924;-71
2023/01/02 02:20:33;;;;;;;6.17;5.00;;;15.30;62.50;;;;;;5050904;28;20793;-71
2023/01/02 02:23:40;;;;;;;9.07;5.10;;;15.30;62.40;;;;;;5013296;28;20960;-71
2023/01/02 02:26:52;;;;;;;8.13;5.90;;;15.30;62.60;;;;;;5050430;28;20495;-71
2023/01/02 02:29:52;;;;;;;6.33;5.33;;;15.30;62.50;;;;;;5051087;28;20578;-71
2023/01/02 02:32:31;;;;;;;7.17;5.93;;;15.30;62.60;;;;;;5063994;28;20431;-71
2023/01/02 02:35:04;;;;;;;6.40;4.93;;;15.20;62.50;;;;;;5075068;28;20447;-71
2023/01/02 02:37:37;;;;;;;8.93;6.03;;;15.20;62.60;;;;;;5075232;28;20483;-71
2023/01/02 02:40:15;;;;;;;7.23;6.10;;;15.20;62.50;;;;;;5065511;28;20435;-71
2023/01/02 02:42:52;;;;;;;8.97;5.40;;;15.20;62.40;;;;;;5056003;28;20441;-72
2023/01/02 02:45:28;;;;;;;8.13;5.73;;;15.20;62.70;;;;;;5064794;28;20492;-72
2023/01/02 02:48:05;;;;;;;6.80;6.00;;;15.20;62.90;;;;;;5076099;28;20416;-71
2023/01/02 02:50:39;;;;;;;10.03;5.87;;;15.30;63.10;;;;;;5075350;28;20480;-71
2023/01/02 02:53:13;;;;;;;6.50;5.30;;;15.20;62.70;;;;;;5066955;28;20475;-72
2023/01/02 02:55:43;;;;;;;7.00;5.30;;;15.20;62.70;;;;;;5046664;28;20464;-71
2023/01/02 02:58:12;;;;;;;8.67;5.50;;;15.30;63.00;;;;;;5031011;28;20440;-71
2023/01/02 03:00:39;;;;;;;6.93;5.80;;;15.30;63.10;;;;;;5031448;28;20929;-71
2023/01/02 03:03:16;;;;;;;9.13;5.63;;;15.20;63.00;;;;;;5032986;28;20955;-71
2023/01/02 03:05:55;;;;;;;7.07;5.73;;;15.30;63.30;;;;;;5051286;28;20444;-71
2023/01/02 03:08:28;;;;;;;8.17;5.20;;;15.20;63.00;;;;;;5037850;28;20449;-72
2023/01/02 03:10:58;;;;;;;5.97;5.37;;;15.20;62.90;;;;;;5034321;28;20441;-71
2023/01/02 03:13:33;;;;;;;8.90;4.93;;;15.20;62.90;;;;;;5050457;28;20999;-71
2023/01/02 03:16:08;;;;;;;9.60;6.00;;;15.20;63.00;;;;;;5050300;28;20449;-71
2023/01/02 03:18:40;;;;;;;7.27;5.20;;;15.20;62.90;;;;;;5050493;28;20446;-71
2023/01/02 03:21:12;;;;;;;10.23;5.80;;;15.20;62.70;;;;;;5051033;28;20792;-71
2023/01/02 03:23:42;;;;;;;8.23;5.73;;;15.10;63.70;;;;;;5050971;28;20912;-71
2023/01/02 03:26:12;;;;;;;7.17;5.27;;;15.10;63.10;;;;;;5050201;28;20495;-71
2023/01/02 03:28:42;;;;;;;9.13;4.83;;;15.10;63.10;;;;;;5051050;28;20448;-71
2023/01/02 03:31:12;;;;;;;8.23;5.27;;;15.00;63.10;;;;;;5054284;28;20810;-71
2023/01/02 03:33:46;;;;;;;8.70;5.47;;;15.00;64.10;;;;;;5054251;28;20505;-71
2023/01/02 03:36:17;;;;;;;7.07;5.63;;;15.00;63.50;;;;;;5053957;28;20440;-71
2023/01/02 03:38:49;;;;;;;8.17;5.37;;;14.90;63.50;;;;;;5054568;28;20444;-71
2023/01/02 03:41:20;;;;;;;7.03;5.60;;;15.00;63.70;;;;;;5041013;28;20917;-71
2023/01/02 03:43:51;;;;;;;6.10;5.50;;;15.00;63.70;;;;;;5050035;28;20447;-71
2023/01/02 03:46:25;;;;;;;7.77;5.40;;;15.00;63.70;;;;;;5053383;28;20463;-71
2023/01/02 03:48:58;;;;;;;8.17;5.07;;;15.00;63.70;;;;;;5054235;28;20796;-71
2023/01/02 03:51:25;;;;;;;7.17;5.13;;;15.00;63.80;;;;;;5053505;28;20429;-71
2023/01/02 03:53:53;;;;;;;7.60;5.20;;;15.00;63.70;;;;;;5052836;28;20490;-71
2023/01/02 03:56:27;;;;;;;6.93;5.10;;;15.00;63.70;;;;;;5053339;28;20466;-71
2023/01/02 03:59:00;;;;;;;5.27;4.77;;;14.90;63.80;;;;;;5034142;28;20430;-71
2023/01/02 04:01:35;;;;;;;7.83;5.70;;;15.00;63.80;;;;;;5033779;28;20434;-71
2023/01/02 04:04:11;;;;;;;6.53;5.23;;;15.00;64.50;;;;;;5043753;28;20443;-71
2023/01/02 04:06:43;;;;;;;10.10;5.50;;;15.00;63.60;;;;;;5053689;28;20447;-71
2023/01/02 04:09:12;;;;;;;8.40;5.63;;;15.00;63.60;;;;;;5054125;28;20439;-71
2023/01/02 04:11:42;;;;;;;7.00;5.30;;;15.00;63.60;;;;;;5053854;28;20764;-71
2023/01/02 04:14:16;;;;;;;7.43;5.03;;;15.00;63.80;;;;;;5053600;28;20831;-71
2023/01/02 04:16:45;;;;;;;8.90;5.10;;;15.00;63.80;;;;;;5053690;28;20467;-71
2023/01/02 04:19:21;;;;;;;6.00;5.20;;;15.00;63.80;;;;;;5052744;28;20448;-71
2023/01/02 04:21:51;;;;;;;7.57;5.40;;;15.00;63.80;;;;;;5053924;28;20450;-71
2023/01/02 04:24:23;;;;;;;7.70;5.23;;;15.00;63.80;;;;;;5053148;28;20425;-71
2023/01/02 04:26:55;;;;;;;8.27;5.60;;;15.00;63.80;;;;;;5053061;28;20492;-71
2023/01/02 04:29:22;;;;;;;8.23;5.70;;;15.00;63.90;;;;;;5052687;28;20444;-71
2023/01/02 04:31:56;;;;;;;7.40;5.80;;;15.00;63.90;;;;;;5052981;28;20448;-71
2023/01/02 04:34:27;;;;;;;5.70;5.03;;;14.90;63.70;;;;;;5052902;28;20464;-71
2023/01/02 04:36:54;;;;;;;6.90;5.30;;;14.90;63.80;;;;;;5052992;28;20440;-71
2023/01/02 04:39:23;;;;;;;6.63;5.47;;;14.90;63.90;;;;;;5052391;28;20457;-71
2023/01/02 04:41:50;;;;;;;9.03;5.53;;;14.90;63.90;;;;;;5052806;28;20453;-71
2023/01/02 04:44:17;;;;;;;8.17;5.77;;;14.90;63.90;;;;;;5052350;28;20466;-71
2023/01/02 04:46:43;;;;;;;8.73;5.53;;;14.90;63.80;;;;;;5053116;28;20471;-71
2023/01/02 04:49:10;;;;;;;6.83;5.63;;;14.90;63.90;;;;;;5053170;28;20451;-71
2023/01/02 04:51:39;;;;;;;6.80;5.53;;;14.90;64.00;;;;;;5052454;28;20456;-72
2023/01/02 04:54:05;;;;;;;6.80;5.20;;;14.90;64.00;;;;;;5053172;28;20484;-71
2023/01/02 04:56:35;;;;;;;10.30;5.60;;;14.90;64.10;;;;;;5051766;28;20456;-71
2023/01/02 04:59:02;;;;;;;9.53;5.63;;;14.80;64.00;;;;;;5052592;28;21000;-71
2023/01/02 05:01:29;;;;;;;8.20;5.90;;;14.80;64.10;;;;;;5052113;28;20448;-72
2023/01/02 05:03:56;;;;;;;6.40;5.67;;;14.80;64.10;;;;;;5052784;28;20810;-71
2023/01/02 05:06:23;;;;;;;7.87;5.50;;;14.80;64.20;;;;;;5052166;28;20453;-72
2023/01/02 05:08:51;;;;;;;8.83;5.83;;;14.70;64.30;;;;;;5037010;28;20464;-71
2023/01/02 05:11:20;;;;;;;7.13;5.73;;;14.70;64.40;;;;;;5032110;28;20445;-71
2023/01/02 05:13:47;;;;;;;7.30;5.10;;;14.70;64.40;;;;;;5032829;28;20941;-71
2023/01/02 05:16:14;;;;;;;6.10;5.13;;;14.70;64.40;;;;;;5049816;28;20448;-71
2023/01/02 05:18:41;;;;;;;7.60;5.30;;;14.70;64.40;;;;;;5052516;28;20451;-71
2023/01/02 05:23:47;;;;;;;8.17;4.80;;;14.70;64.50;;;;;;5052116;28;20970;-71
2023/01/02 05:24:00;;;;;;;8.60;4.93;;;14.70;64.50;;;;;;5052259;28;20421;-72
2023/01/02 05:26:29;;;;;;;7.70;5.27;;;14.60;64.40;;;;;;5051131;28;20979;-71
2023/01/02 05:28:56;;;;;;;7.23;5.53;;;14.60;64.50;;;;;;5052132;28;20458;-71
2023/01/02 05:31:23;;;;;;;7.87;5.47;;;14.60;64.50;;;;;;5051944;28;20452;-71
2023/01/02 05:33:53;;;;;;;7.57;5.77;;;14.60;64.50;;;;;;5052298;28;20476;-71
2023/01/02 05:36:22;;;;;;;6.40;5.00;;;14.60;64.40;;;;;;5051309;28;20452;-71
2023/01/02 05:38:48;;;;;;;7.20;5.57;;;14.60;64.50;;;;;;5051797;28;20455;-71
2023/01/02 05:41:17;;;;;;;10.13;5.87;;;14.60;64.60;;;;;;5051787;28;20448;-71
2023/01/02 05:43:44;;;;;;;8.00;5.87;;;14.50;64.40;;;;;;5056570;28;20455;-71
2023/01/02 05:46:13;;;;;;;7.77;5.63;;;14.50;64.30;;;;;;5056937;28;20452;-71
2023/01/02 05:48:40;;;;;;;8.50;5.53;;;14.50;64.50;;;;;;5051646;28;20459;-71
2023/01/02 05:51:10;;;;;;;5.53;4.93;;;14.50;64.50;;;;;;5051995;28;20455;-71
2023/01/02 05:53:37;;;;;;;9.10;5.07;;;14.40;64.40;;;;;;5050657;28;20839;-70
2023/01/02 05:56:06;;;;;;;6.43;5.07;;;14.40;64.30;;;;;;5051974;28;20959;-71
2023/01/02 05:58:35;;;;;;;7.70;4.90;;;14.40;64.30;;;;;;5050659;28;20452;-72
2023/01/02 06:01:07;;;;;;;8.47;6.23;;;14.40;64.40;;;;;;5051835;28;20452;-72
2023/01/02 06:03:34;;;;;;;8.40;5.40;;;14.30;64.60;;;;;;5050962;28;20948;-71
2023/01/02 06:06:05;;;;;;;9.23;7.40;;;14.30;64.50;;;;;;5054636;28;20460;-71
2023/01/02 06:08:32;;;;;;;8.23;7.37;;;14.30;64.50;;;;;;5050663;28;20502;-71
2023/01/02 06:10:59;;;;;;;9.37;7.10;;;14.30;64.50;;;;;;5051474;28;20460;-71
2023/01/02 06:13:27;;;;;;;7.40;6.67;;;14.20;64.40;;;;;;5050437;28;20972;-71
2023/01/02 06:15:56;;;;;;;7.97;6.67;;;14.20;64.40;;;;;;5051644;28;20448;-71
2023/01/02 06:18:23;;;;;;;7.27;6.57;;;14.20;64.50;;;;;;5050309;28;20452;-71
2023/01/02 06:20:50;;;;;;;7.83;6.23;;;14.20;64.60;;;;;;5051452;28;20449;-71
2023/01/02 06:23:17;;;;;;;7.50;6.33;;;14.20;64.50;;;;;;5051334;28;20452;-71
2023/01/02 06:25:44;;;;;;;8.60;6.40;;;14.20;64.50;;;;;;5050773;28;20490;-71
2023/01/02 06:28:11;;;;;;;7.80;5.70;;;14.20;64.70;;;;;;5051085;28;20945;-71
2023/01/02 06:30:37;;;;;;;9.40;6.60;;;14.10;64.70;;;;;;5050877;28;20455;-71
2023/01/02 06:33:06;;;;;;;9.10;6.20;;;14.10;64.90;;;;;;5051172;28;20452;-71
2023/01/02 06:35:32;;;;;;;8.20;6.50;;;14.10;65.00;;;;;;5050541;28;20491;-71
2023/01/02 06:37:59;;;;;;;7.57;6.47;;;14.00;65.10;;;;;;5050894;28;20463;-71
2023/01/02 06:40:26;;;;;;;9.40;6.10;;;14.00;65.40;;;;;;5050823;28;20451;-71
2023/01/02 06:42:53;;;;;;;6.57;5.70;;;14.00;65.70;;;;;;5050365;28;20972;-71
2023/01/02 06:45:22;;;;;;;7.47;5.27;;;14.00;65.70;;;;;;5051674;28;20539;-71
2023/01/02 06:47:49;;;;;;;6.00;5.40;;;14.00;65.60;;;;;;5051356;28;20459;-71
2023/01/02 06:50:17;;;;;;;8.33;5.53;;;13.90;65.40;;;;;;5051308;28;20538;-71
2023/01/02 06:52:44;;;;;;;8.10;5.53;;;13.90;65.50;;;;;;5050602;28;20479;-71
2023/01/02 06:55:10;;;;;;;8.50;5.40;;;14.00;65.60;;;;;;5050519;28;20480;-71
2023/01/02 06:57:37;;;;;;;7.40;5.27;;;14.00;65.60;;;;;;5050287;28;20448;-70
2023/01/02 07:00:05;;;;;;;10.60;5.80;;;14.00;65.50;;;;;;5051073;28;20458;-70
2023/01/02 07:02:32;;;;;;;11.93;5.90;;;14.00;65.50;;;;;;5050453;28;20455;-70
2023/01/02 07:04:59;;;;;;;8.83;5.63;;;14.00;65.50;;;;;;5055019;28;20448;-70
2023/01/02 07:07:27;;;;;;;6.33;5.30;;;14.00;65.50;;;;;;5054024;28;20482;-70
2023/01/02 07:09:55;;;;;;;6.33;5.00;;;14.00;65.60;;;;;;5054633;28;20458;-70
2023/01/02 07:12:22;;;;;;;6.90;5.30;;;14.00;65.60;;;;;;5054400;28;20571;-70
2023/01/02 07:14:49;;;;;;;7.77;5.43;;;14.00;65.60;;;;;;5054871;28;20480;-70
2023/01/02 07:17:16;;;;;;;6.73;5.27;;;14.10;65.60;;;;;;5054907;28;20483;-70
2023/01/02 07:19:43;;;;;;;7.30;5.37;;;14.10;65.70;;;;;;5054067;28;20448;-70
2023/01/02 07:22:10;;;;;;;7.27;5.20;;;14.10;65.50;;;;;;5054740;28;20448;-70
2023/01/02 07:24:38;;;;;;;5.70;5.10;;;14.10;65.50;;;;;;5054111;28;20440;-71
2023/01/02 07:27:05;;;;;;;7.03;5.50;;;14.10;65.50;;;;;;5053361;28;20492;-70
2023/01/02 07:29:32;;;;;;;9.80;5.67;;;14.10;65.40;;;;;;5049439;28;20530;-70
2023/01/02 07:31:59;;;;;;;6.40;5.50;;;14.10;65.40;;;;;;5054709;28;20444;-70
2023/01/02 07:34:26;;;;;;;8.63;5.13;;;14.10;66.20;;;;;;5053906;28;20490;-70
2023/01/02 07:36:53;;;;;;;7.50;5.03;;;14.10;65.70;;;;;;5054013;28;20454;-70
2023/01/02 07:39:20;;;;;;;7.43;5.17;;;14.10;65.70;;;;;;5054209;28;20455;-70
2023/01/02 07:41:48;;;;;;;6.43;5.20;;;14.00;65.70;;;;;;5053760;28;20527;-70
2023/01/02 07:44:17;;;;;;;7.87;5.03;;;14.10;65.80;;;;;;5054607;28;20456;-70
2023/01/02 07:46:44;;;;;;;7.30;5.77;;;14.10;65.80;;;;;;5053150;28;20502;-70
2023/01/02 07:49:12;;;;;;;5.73;4.63;;;14.10;66.60;;;;;;5054465;28;20452;-71
2023/01/02 07:51:38;;;;;;;7.60;5.03;;;14.10;65.70;;;;;;5053418;28;20448;-71
2023/01/02 07:54:05;;;;;;;8.53;5.37;;;14.10;66.40;;;;;;5053876;28;20459;-71
2023/01/02 07:56:32;;;;;;;6.77;4.77;;;14.00;65.40;;;;;;5051504;28;20460;-70
2023/01/02 07:59:00;;;;;;;6.73;4.50;;;14.00;65.40;;;;;;5052694;28;20457;-70
2023/01/02 08:01:27;;;;;;;6.53;4.90;;;14.10;65.50;;;;;;5052810;28;20493;-69
2023/01/02 08:03:54;;;;;;;5.33;4.60;;;14.10;65.50;;;;;;5053974;28;20853;-70
2023/01/02 08:06:21;;;;;;;9.83;5.00;;;14.00;65.30;;;;;;5053608;28;20459;-71
2023/01/02 08:08:48;;;;;;;6.77;4.47;;;14.10;65.30;;;;;;5052657;28;20452;-71
2023/01/02 08:11:17;;;;;;;8.80;5.00;;;14.10;65.40;;;;;;5053948;28;20896;-70
2023/01/02 08:13:44;;;;;;;6.47;4.63;;;14.10;65.30;;;;;;5052786;28;20524;-71
2023/01/02 08:16:14;;;;;;;7.37;4.90;;;14.10;66.10;;;;;;5052986;28;20484;-70
2023/01/02 08:18:41;;;;;;;6.33;4.30;;;14.10;65.30;;;;;;5052721;28;20480;-70
2023/01/02 08:21:09;;;;;;;6.83;5.00;;;14.10;65.20;;;;;;5053015;28;20551;-70
2023/01/02 08:23:37;;;;;;;6.37;4.53;;;14.10;65.20;;;;;;5052896;28;20452;-70
2023/01/02 08:26:05;;;;;;;6.90;4.40;;;14.10;65.00;;;;;;5052539;28;20526;-71
2023/01/02 08:28:33;;;;;;;7.60;5.17;;;14.10;65.20;;;;;;5052611;28;21023;-70
2023/01/02 08:31:01;;;;;;;9.27;4.80;;;14.10;65.50;;;;;;5052863;28;20535;-70
2023/01/02 08:33:29;;;;;;;7.60;4.90;;;14.10;65.40;;;;;;5052696;28;20543;-70
2023/01/02 08:35:56;;;;;;;8.50;4.80;;;14.10;65.30;;;;;;5053418;28;20571;-70
2023/01/02 08:38:22;;;;;;;5.73;4.40;;;14.20;65.30;;;;;;5053596;28;20548;-70
2023/01/02 08:40:50;;;;;;;9.20;5.17;;;14.20;65.20;;;;;;5052331;28;20940;-70
2023/01/02 08:43:17;;;;;;;7.00;4.93;;;14.20;65.40;;;;;;5053403;28;20448;-71
2023/01/02 08:45:44;;;;;;;7.10;4.70;;;14.30;65.30;;;;;;5052397;28;20440;-70
2023/01/02 08:48:11;;;;;;;6.70;5.00;;;14.40;65.50;;;;;;5052503;28;20878;-71
2023/01/02 08:50:39;;;;;;;6.93;4.90;;;14.40;65.40;;;;;;5038225;28;20544;-71
2023/01/02 08:53:06;;;;;;;8.20;4.83;;;14.50;65.30;;;;;;5032916;28;20540;-71
2023/01/02 08:55:33;;;;;;;7.33;4.40;;;14.60;65.30;;;;;;5038212;28;20484;-71
2023/01/02 08:57:59;;;;;;;6.90;4.63;;;14.70;65.00;;;;;;5052788;28;20449;-70
2023/01/02 09:00:29;;;;;;;8.83;4.20;;;14.80;65.10;;;;;;5052736;28;20459;-70
2023/01/02 09:02:56;;;;;;;4.97;4.20;;;14.90;63.80;;;;;;5053028;28;20455;-70
2023/01/02 09:05:23;;;;;;;5.17;4.00;;;15.10;63.90;;;;;;5052598;28;20445;-70
2023/01/02 09:07:51;;;;;;;5.97;4.23;;;15.30;64.20;;;;;;5052273;28;20452;-71
2023/01/02 09:10:18;;;;;;;4.27;3.50;;;15.40;63.80;;;;;;5052844;28;20459;-70
2023/01/02 09:12:45;;;;;;;5.83;4.00;;;15.40;63.60;;;;;;5051734;28;20551;-70
2023/01/02 09:15:12;;;;;;;6.70;3.90;;;15.50;63.60;;;;;;5052793;28;20512;-70
2023/01/02 09:17:39;;;;;;;5.00;3.70;;;15.60;63.40;;;;;;5052009;28;20523;-71
2023/01/02 09:20:06;;;;;;;9.87;3.63;;;15.70;63.00;;;;;;5052663;28;20480;-70
2023/01/02 09:22:33;;;;;;;6.60;3.27;;;15.70;60.90;;;;;;5051997;28;20462;-71
2023/01/02 09:25:02;;;;;;;5.77;2.90;;;15.80;61.10;;;;;;5052175;28;20459;-71
2023/01/02 09:27:28;;;;;;;4.80;2.93;;;15.80;59.60;;;;;;5051028;28;20436;-70
2023/01/02 09:29:55;;;;;;;5.73;3.20;;;15.90;59.30;;;;;;5052283;28;20456;-70
2023/01/02 09:32:22;;;;;;;4.40;2.70;;;15.90;59.40;;;;;;5052088;28;20536;-71
2023/01/02 09:34:49;;;;;;;5.10;2.97;;;16.00;57.90;;;;;;5051113;28;20484;-70
2023/01/02 09:37:17;;;;;;;4.53;2.60;;;16.10;58.30;;;;;;5051113;28;20449;-72
2023/01/02 09:39:44;;;;;;;3.80;2.90;;;16.20;57.70;;;;;;5050220;28;20495;-71
2023/01/02 09:42:16;;;;;;;5.13;3.00;;;16.30;57.40;;;;;;5043443;28;20453;-72
2023/01/02 09:44:47;;;;;;;5.10;2.93;;;16.40;57.00;;;;;;5044544;28;20495;-72
2023/01/02 09:47:17;;;;;;;4.47;2.83;;;16.50;57.20;;;;;;5051986;28;20789;-73
2023/01/02 09:49:48;;;;;;;5.10;3.07;;;16.60;56.90;;;;;;5051300;28;20447;-72
2023/01/02 09:52:19;;;;;;;6.30;2.90;;;16.70;56.60;;;;;;5051618;28;20532;-72
2023/01/02 09:54:46;;;;;;;4.17;2.90;;;16.80;56.50;;;;;;5051043;28;20851;-73
2023/01/02 09:57:34;;;;;;;4.97;3.00;;;16.80;56.10;;;;;;5052020;28;20490;-74
2023/01/02 10:00:04;;;;;;;4.10;2.90;;;16.80;55.40;;;;;;5051503;28;20441;-74
2023/01/02 10:02:43;;;;;;;3.47;2.80;;;17.00;55.30;;;;;;5050997;28;20476;-73
2023/01/02 10:05:28;;;;;;;4.87;2.87;;;17.00;55.10;;;;;;5051249;28;20447;-73
2023/01/02 10:08:02;;;;;;;5.93;3.33;;;17.10;55.10;;;;;;5051661;28;20519;-73
2023/01/02 10:10:34;;;;;;;5.20;3.10;;;17.20;54.80;;;;;;5051404;28;20450;-74
2023/01/02 10:13:12;;;;;;;6.30;2.73;;;17.30;54.50;;;;;;5050999;28;20447;-73
2023/01/02 10:15:53;;;;;;;6.37;2.40;;;17.30;53.80;;;;;;5050400;28;20471;-72
2023/01/02 10:18:32;;;;;;;7.00;2.70;;;17.40;53.90;;;;;;5051070;28;20525;-70
2023/01/02 10:21:03;;;;;;;5.07;2.60;;;17.60;53.50;;;;;;5050893;28;20564;-70
2023/01/02 10:23:35;;;;;;;2.67;2.20;;;17.60;53.20;;;;;;5051845;28;20982;-70
2023/01/02 10:26:05;;;;;;;4.57;3.00;;;17.70;53.10;;;;;;5050833;28;20488;-70
2023/01/02 10:28:43;;;;;;;4.70;2.70;;;17.80;53.20;;;;;;5050220;28;20472;-70
2023/01/02 10:31:16;;;;;;;5.73;2.90;;;17.80;52.60;;;;;;5051269;28;20476;-70
2023/01/02 10:33:46;;;;;;;4.70;2.50;;;17.80;52.50;;;;;;5051370;28;20523;-70
2023/01/02 10:36:23;;;;;;;3.33;2.37;;;17.80;52.60;;;;;;5043460;28;20494;-70
2023/01/02 10:38:50;;;;;;;5.30;2.83;;;17.90;52.60;;;;;;5050166;28;20459;-70
2023/01/02 10:41:18;;;;;;;4.03;2.30;;;18.00;52.50;;;;;;5051398;28;20467;-70
2023/01/02 10:43:52;;;;;;;5.70;2.63;;;18.00;52.40;;;;;;5049774;28;20474;-70
2023/01/02 10:46:19;;;;;;;3.40;2.50;;;18.10;52.00;;;;;;5051096;28;20987;-71
2023/01/02 10:48:46;;;;;;;3.27;2.50;;;18.20;52.20;;;;;;5049351;28;20468;-70
2023/01/02 10:51:16;;;;;;;3.63;2.20;;;18.30;51.20;;;;;;5051735;28;20474;-70
2023/01/02 10:53:43;;;;;;;6.17;2.30;;;18.40;50.20;;;;;;5051463;28;20464;-70
2023/01/02 10:56:18;;;;;;;4.07;2.20;;;18.40;50.10;;;;;;5062582;28;20622;-70
2023/01/02 10:58:48;;;;;;;6.80;2.40;;;18.50;50.10;;;;;;5049103;28;20444;-70
2023/01/02 11:01:18;;;;;;;7.23;2.30;;;18.60;49.60;;;;;;5047876;28;20533;-70
2023/01/02 11:03:45;;;;;;;6.90;2.27;;;18.60;49.80;;;;;;5049970;28;20527;-70
2023/01/02 11:06:20;;;;;;;5.13;2.30;;;18.70;49.50;;;;;;5052961;28;20450;-70
2023/01/02 11:08:57;;;;;;;5.63;2.47;;;18.80;49.60;;;;;;5042921;28;20504;-68
2023/01/02 11:11:25;;;;;;;5.83;2.30;;;18.80;49.10;;;;;;5047557;28;20467;-70
2023/01/02 11:13:55;;;;;;;7.03;2.50;;;18.90;49.40;;;;;;5049610;28;20444;-70
2023/01/02 11:16:24;;;;;;;7.03;2.67;;;19.10;49.10;;;;;;5050766;28;20472;-71
2023/01/02 11:18:53;;;;;;;4.83;2.30;;;19.30;49.10;;;;;;5049857;28;20449;-71
2023/01/02 11:21:28;;;;;;;7.83;2.50;;;19.50;48.50;;;;;;5043142;28;20488;-70
2023/01/02 11:23:59;;;;;;;5.07;2.70;;;19.70;48.00;;;;;;5050249;28;20451;-71
2023/01/02 11:26:31;;;;;;;5.03;2.97;;;19.90;47.80;;;;;;5047008;28;20218;-71
2023/01/02 11:29:06;;;;;;;5.87;2.23;;;20.00;48.50;;;;;;5049296;28;20445;-71
2023/01/02 11:31:33;;;;;;;4.90;2.17;;;20.10;47.70;;;;;;5036192;28;20190;-71
2023/01/02 11:34:08;;;;;;;5.73;2.43;;;20.20;47.50;;;;;;5049827;28;20210;-71
2023/01/02 11:36:36;;;;;;;9.57;2.30;;;20.20;46.90;;;;;;5048285;28;20223;-71
2023/01/02 11:39:21;;;;;;;5.50;2.53;;;20.20;46.70;;;;;;5048847;28;20210;-71
2023/01/02 11:44:52;;;;;;;6.00;2.23;;;20.50;46.30;;;;;;5052122;28;20569;-71
2023/01/02 11:47:26;;;;;;;7.27;2.27;;;20.50;47.30;;;;;;5050173;28;20186;-71
2023/01/02 11:49:53;;;;;;;7.23;2.83;;;20.50;46.80;;;;;;5049601;28;20592;-71
2023/01/02 11:52:26;;;;;;;5.73;2.27;;;20.50;46.70;;;;;;5058672;28;20668;-71
2023/01/02 11:55:00;;;;;;;6.10;2.60;;;20.40;46.90;;;;;;5054202;28;20209;-71
2023/01/02 11:57:35;;;;;;;6.47;2.67;;;20.50;47.00;;;;;;5053497;28;20218;-71
2023/01/02 12:00:10;;;;;;;4.67;2.70;;;20.60;47.30;;;;;;5055451;28;20208;-71
2023/01/02 12:02:42;;;;;;;4.53;2.20;;;20.90;47.30;;;;;;5059827;28;20209;-71
2023/01/02 12:05:12;;;;;;;5.67;2.60;;;21.20;47.00;;;;;;5053126;28;20305;-71
2023/01/02 12:07:44;;;;;;;6.83;2.80;;;21.10;46.60;;;;;;5052453;28;20677;-71
2023/01/02 12:10:34;;;;;;;4.90;2.50;;;21.20;46.50;;;;;;5052888;28;20224;-71
2023/01/02 12:13:17;;;;;;;7.00;3.03;;;21.30;47.00;;;;;;5054010;28;20202;-71
2023/01/02 12:16:06;;;;;;;7.03;3.53;;;20.90;47.50;;;;;;5052884;28;20208;-71
2023/01/02 12:18:46;;;;;;;7.07;2.80;;;20.50;48.40;;;;;;5053456;28;20200;-71
2023/01/02 12:21:21;;;;;;;8.67;3.20;;;20.40;49.70;;;;;;5017690;28;20256;-71
2023/01/02 12:24:12;;;;;;;6.67;2.60;;;20.20;49.40;;;;;;5052589;28;20609;-71
2023/01/02 12:26:47;;;;;;;6.93;2.80;;;20.10;49.90;;;;;;5051226;28;20299;-71
2023/01/02 12:29:25;;;;;;;6.47;3.23;;;19.80;50.40;;;;;;5052538;28;20256;-71
2023/01/02 12:32:06;;;;;;;5.53;2.90;;;19.50;51.00;;;;;;5051491;28;20661;-71
2023/01/02 12:34:57;;;;;;;8.70;3.13;;;19.40;51.50;;;;;;5052215;28;20201;-71
2023/01/02 12:37:39;;;;;;;7.00;3.50;;;19.50;51.80;;;;;;5051842;28;20377;-71
2023/01/02 12:40:18;;;;;;;6.40;2.80;;;19.60;51.60;;;;;;5051232;28;20293;-71
2023/01/02 12:43:07;;;;;;;6.30;2.50;;;20.00;51.00;;;;;;5051574;28;20198;-71
2023/01/02 12:45:44;;;;;;;8.00;2.93;;;20.00;51.10;;;;;;5052168;28;20558;-71
2023/01/02 12:48:27;;;;;;;9.80;3.50;;;19.70;51.10;;;;;;5051792;28;20194;-71
2023/01/02 12:51:07;;;;;;;4.47;2.50;;;19.70;51.50;;;;;;5049337;28;20598;-71
2023/01/02 12:53:48;;;;;;;5.50;2.53;;;19.60;51.70;;;;;;5051292;28;20924;-71
2023/01/02 12:56:21;;;;;;;8.77;2.40;;;19.50;51.50;;;;;;5051295;28;20221;-71
2023/01/02 12:59:04;;;;;;;5.03;2.90;;;19.50;51.40;;;;;;5050730;28;20909;-71
2023/01/02 13:01:38;;;;;;;5.40;2.50;;;19.30;51.60;;;;;;5051190;28;20233;-71
2023/01/02 13:04:15;;;;;;;4.87;2.13;;;19.30;51.70;;;;;;5049086;28;20284;-71
2023/01/02 13:06:52;;;;;;;5.80;2.23;;;19.10;51.80;;;;;;5051629;28;20182;-71